Time;durP1;ratioP1;P1;durP2;ratioP2;P2;SDS_P1;SDS_P2;PMS_P1;PMS_P2;Temp;Humidity;BMP_temperature;BMP_pressure;BME280_temperature;BME280_humidity;BME280_pressure;Samples;Min_cycle;Max_cycle;Signal;HPM_P1;HPM_P2
2023/11/01 00:02:08;;;;;;;;;;;;;;;8.52;100.00;95311.91;10517435;28;2628;-69
2023/11/01 00:07:13;;;;;;;;;;;;;;;8.52;100.00;95311.91;10498378;28;2566;-67
2023/11/01 00:12:16;;;;;;;;;;;;;;;8.49;100.00;95323.19;10512203;28;2749;-68
2023/11/01 00:17:18;;;;;;;;;;;;;;;8.37;100.00;95320.78;10497724;28;2668;-69
2023/11/01 00:22:23;;;;;;;;;;;;;;;8.23;100.00;95315.16;10490035;28;2660;-67
2023/11/01 00:27:30;;;;;;;;;;;;;;;8.19;100.00;95315.97;10494678;28;2565;-69
2023/11/01 00:32:39;;;;;;;;;;;;;;;8.29;100.00;95308.72;10532975;28;2656;-76
2023/11/01 00:37:44;;;;;;;;;;;;;;;8.24;100.00;95302.56;10495114;28;2613;-73
2023/11/01 00:42:48;;;;;;;;;;;;;;;8.12;100.00;95313.56;10497207;28;2592;-73
2023/11/01 00:47:51;;;;;;;;;;;;;;;8.16;100.00;95313.84;10530701;28;2744;-70
2023/11/01 00:52:54;;;;;;;;;;;;;;;8.17;100.00;95315.44;10510700;28;2574;-78
2023/11/01 00:57:59;;;;;;;;;;;;;;;8.09;100.00;95306.06;10527634;28;2631;-70
2023/11/01 01:03:03;;;;;;;;;;;;;;;8.02;100.00;95303.69;10490266;28;2642;-69
2023/11/01 01:08:06;;;;;;;;;;;;;;;7.96;100.00;95315.44;10498785;28;4639;-71
2023/11/01 01:13:09;;;;;;;;;;;;;;;8.01;100.00;95315.44;10530464;27;2669;-71
2023/11/01 01:18:14;;;;;;;;;;;;;;;8.17;100.00;95307.41;10517234;28;2667;-71
2023/11/01 01:23:18;;;;;;;;;;;;;;;8.43;100.00;95292.13;10534119;27;2556;-70
2023/11/01 01:28:21;;;;;;;;;;;;;;;8.58;100.00;95284.84;10507674;28;2793;-71
2023/11/01 01:33:25;;;;;;;;;;;;;;;8.71;100.00;95282.66;10509241;28;2561;-70
2023/11/01 01:38:28;;;;;;;;;;;;;;;8.77;100.00;95270.84;10525084;27;2581;-72
2023/11/01 01:43:31;;;;;;;;;;;;;;;8.84;100.00;95271.34;10506082;28;2601;-75
2023/11/01 01:48:37;;;;;;;;;;;;;;;8.91;100.00;95261.97;10512047;28;2671;-70
2023/11/01 01:53:40;;;;;;;;;;;;;;;8.97;100.00;95259.22;10493233;28;2688;-71
2023/11/01 01:58:45;;;;;;;;;;;;;;;8.97;100.00;95249.34;10494280;28;2818;-72
2023/11/01 02:03:49;;;;;;;;;;;;;;;8.99;100.00;95247.19;10514434;28;2724;-71
2023/11/01 02:08:52;;;;;;;;;;;;;;;9.08;100.00;95250.06;10514270;28;4666;-71
2023/11/01 02:13:56;;;;;;;;;;;;;;;9.14;100.00;95225.63;10532799;27;2603;-72
2023/11/01 02:19:01;;;;;;;;;;;;;;;9.14;100.00;95228.31;10493431;28;2571;-71
2023/11/01 02:24:04;;;;;;;;;;;;;;;9.09;100.00;95233.69;10508473;28;2623;-72
2023/11/01 02:29:11;;;;;;;;;;;;;;;9.07;100.00;95222.47;10488014;28;2589;-71
2023/11/01 02:34:14;;;;;;;;;;;;;;;8.98;100.00;95221.44;10488163;28;2634;-71
2023/11/01 02:39:17;;;;;;;;;;;;;;;8.88;100.00;95214.25;10516078;28;2685;-71
2023/11/01 02:44:21;;;;;;;;;;;;;;;8.81;100.00;95218.31;10512844;28;2825;-71
2023/11/01 02:49:25;;;;;;;;;;;;;;;8.68;100.00;95217.03;10494120;28;2601;-71
2023/11/01 02:54:28;;;;;;;;;;;;;;;8.63;100.00;95212.50;10525954;28;2553;-72
2023/11/01 02:59:31;;;;;;;;;;;;;;;8.64;100.00;95214.09;10506697;28;2555;-69
2023/11/01 03:04:34;;;;;;;;;;;;;;;8.55;100.00;95206.91;10520144;28;2704;-70
2023/11/01 03:09:38;;;;;;;;;;;;;;;8.32;100.00;95206.41;10535007;28;4682;-70
2023/11/01 03:14:41;;;;;;;;;;;;;;;8.15;100.00;95203.28;10518385;28;2585;-71
2023/11/01 03:19:45;;;;;;;;;;;;;;;8.00;100.00;95203.28;10514017;28;2648;-71
2023/11/01 03:24:48;;;;;;;;;;;;;;;7.80;100.00;95198.78;10522530;28;2827;-70
2023/11/01 03:29:51;;;;;;;;;;;;;;;7.68;100.00;95192.91;10508279;28;2829;-69
2023/11/01 03:34:55;;;;;;;;;;;;;;;7.63;100.00;95187.56;10506012;28;2750;-69
2023/11/01 03:40:02;;;;;;;;;;;;;;;7.56;100.00;95201.19;10529109;27;2666;-70
2023/11/01 03:45:07;;;;;;;;;;;;;;;7.47;100.00;95195.59;10515366;28;2581;-71
2023/11/01 03:50:09;;;;;;;;;;;;;;;7.40;100.00;95199.63;10512242;28;2656;-72
2023/11/01 03:55:17;;;;;;;;;;;;;;;7.40;100.00;95199.63;10522532;28;2625;-72
2023/11/01 04:00:22;;;;;;;;;;;;;;;7.40;100.00;95191.59;10492076;28;2835;-73
2023/11/01 04:05:27;;;;;;;;;;;;;;;7.35;100.00;95196.94;10504678;28;2602;-72
2023/11/01 04:10:31;;;;;;;;;;;;;;;7.27;100.00;95179.56;10523263;28;4676;-71
2023/11/01 04:15:34;;;;;;;;;;;;;;;7.16;100.00;95178.75;10538206;28;2701;-71
2023/11/01 04:20:37;;;;;;;;;;;;;;;7.12;100.00;95174.19;10502996;28;2673;-70
2023/11/01 04:25:42;;;;;;;;;;;;;;;7.05;100.00;95164.56;10518750;28;2576;-71
2023/11/01 04:30:46;;;;;;;;;;;;;;;7.01;100.00;95160.81;10521213;28;2970;-73
2023/11/01 04:35:49;;;;;;;;;;;;;;;6.97;100.00;95172.31;10519228;28;2978;-72
2023/11/01 04:40:53;;;;;;;;;;;;;;;6.96;100.00;95165.34;10537142;28;2667;-70
2023/11/01 04:45:57;;;;;;;;;;;;;;;6.91;100.00;95165.34;10487332;28;2622;-70
2023/11/01 04:51:00;;;;;;;;;;;;;;;6.86;100.00;95155.44;10500353;28;2669;-70
2023/11/01 04:56:05;;;;;;;;;;;;;;;6.93;100.00;95153.31;10514136;28;2793;-70
2023/11/01 05:01:10;;;;;;;;;;;;;;;6.94;100.00;95148.81;10524911;28;2573;-70
2023/11/01 05:06:15;;;;;;;;;;;;;;;6.91;100.00;95139.44;10451815;28;1305771;-71
2023/11/01 05:11:19;;;;;;;;;;;;;;;6.89;100.00;95136.22;10516352;28;4670;-69
2023/11/01 05:16:25;;;;;;;;;;;;;;;6.84;100.00;95122.84;10526047;28;2569;-71
2023/11/01 05:21:30;;;;;;;;;;;;;;;6.73;100.00;95121.22;10517229;28;2605;-70
2023/11/01 05:26:36;;;;;;;;;;;;;;;6.63;100.00;95121.22;10525255;27;2669;-69
2023/11/01 05:31:41;;;;;;;;;;;;;;;6.54;100.00;95117.47;10509198;28;2547;-70
2023/11/01 05:36:44;;;;;;;;;;;;;;;6.33;100.00;95120.09;10516622;28;2731;-70
2023/11/01 05:41:47;;;;;;;;;;;;;;;6.22;100.00;95111.22;10516370;28;2608;-71
2023/11/01 05:46:50;;;;;;;;;;;;;;;6.25;100.00;95111.78;10491935;28;2646;-72
2023/11/01 05:51:54;;;;;;;;;;;;;;;6.26;100.00;95106.19;10521135;28;3068;-73
2023/11/01 05:56:58;;;;;;;;;;;;;;;6.18;100.00;95106.69;10533921;27;2522;-76
2023/11/01 06:02:01;;;;;;;;;;;;;;;6.15;100.00;95110.69;10495439;28;2666;-77
2023/11/01 06:07:06;;;;;;;;;;;;;;;6.17;100.00;95113.06;10513408;28;2589;-74
2023/11/01 06:12:15;;;;;;;;;;;;;;;6.21;100.00;95114.16;10467652;28;4825;-69
2023/11/01 06:17:20;;;;;;;;;;;;;;;6.25;100.00;95115.25;10495539;28;2629;-69
2023/11/01 06:22:23;;;;;;;;;;;;;;;6.35;100.00;95106.47;10509008;28;2699;-69
2023/11/01 06:27:33;;;;;;;;;;;;;;;6.38;100.00;95104.09;10530788;28;2979;-68
2023/11/01 06:32:37;;;;;;;;;;;;;;;6.56;100.00;95099.31;10492783;28;2560;-69
2023/11/01 06:37:43;;;;;;;;;;;;;;;6.73;100.00;95099.88;10501440;28;2596;-69
2023/11/01 06:42:46;;;;;;;;;;;;;;;6.76;100.00;95102.03;10506902;28;2607;-74
2023/11/01 06:47:54;;;;;;;;;;;;;;;6.75;100.00;95108.44;10509556;28;2669;-71
2023/11/01 06:53:01;;;;;;;;;;;;;;;6.74;100.00;95114.81;10521308;28;2605;-68
2023/11/01 06:58:03;;;;;;;;;;;;;;;6.72;100.00;95106.28;10493736;28;2556;-68
2023/11/01 07:03:06;;;;;;;;;;;;;;;6.77;100.00;95106.28;10516512;28;2540;-68
2023/11/01 07:08:14;;;;;;;;;;;;;;;6.82;100.00;95095.63;10527468;28;2546;-69
2023/11/01 07:13:17;;;;;;;;;;;;;;;6.89;100.00;95100.69;10486742;28;2562;-71
2023/11/01 07:18:21;;;;;;;;;;;;;;;6.99;100.00;95098.81;10493808;28;2608;-71
2023/11/01 07:23:24;;;;;;;;;;;;;;;7.00;100.00;95095.09;10495044;28;2663;-71
2023/11/01 07:28:27;;;;;;;;;;;;;;;7.06;100.00;95090.53;10498936;28;2644;-72
2023/11/01 07:33:33;;;;;;;;;;;;;;;7.14;100.00;95083.88;10507593;28;2634;-73
2023/11/01 07:38:37;;;;;;;;;;;;;;;7.23;100.00;95076.91;10511448;28;2736;-69
2023/11/01 07:43:44;;;;;;;;;;;;;;;7.28;100.00;95076.91;10501959;28;2633;-68
2023/11/01 07:48:47;;;;;;;;;;;;;;;7.45;100.00;95073.94;10523578;28;2767;-70
2023/11/01 07:53:52;;;;;;;;;;;;;;;7.58;100.00;95076.84;10517486;28;2682;-69
2023/11/01 07:58:57;;;;;;;;;;;;;;;7.69;100.00;95074.13;10512304;28;2545;-69
2023/11/01 08:04:03;;;;;;;;;;;;;;;7.86;100.00;95061.22;10496397;28;2580;-70
2023/11/01 08:09:07;;;;;;;;;;;;;;;7.97;100.00;95046.75;10486629;28;4666;-70
2023/11/01 08:14:11;;;;;;;;;;;;;;;8.15;100.00;95034.63;10500108;28;2654;-70
2023/11/01 08:19:13;;;;;;;;;;;;;;;8.28;100.00;95035.88;10507672;28;2977;-69
2023/11/01 08:24:17;;;;;;;;;;;;;;;8.53;100.00;95019.69;10504700;28;2617;-68
2023/11/01 08:29:23;;;;;;;;;;;;;;;8.65;100.00;95020.13;10529546;27;2616;-70
2023/11/01 08:34:29;;;;;;;;;;;;;;;8.87;100.00;95008.97;10499448;28;2620;-70
2023/11/01 08:39:33;;;;;;;;;;;;;;;8.95;100.00;95004.88;10519220;28;2623;-69
2023/11/01 08:44:36;;;;;;;;;;;;;;;9.12;100.00;94999.09;10509365;28;2554;-70
2023/11/01 08:49:40;;;;;;;;;;;;;;;9.39;100.00;94993.97;10521857;28;2004;-69
2023/11/01 08:54:44;;;;;;;;;;;;;;;9.63;100.00;94982.47;10517459;28;2836;-69
2023/11/01 08:59:50;;;;;;;;;;;;;;;9.82;100.00;94979.81;10510826;28;1968;-69
2023/11/01 09:04:54;;;;;;;;;;;;;;;9.91;100.00;94978.06;10530113;28;1622;-69
2023/11/01 09:09:57;;;;;;;;;;;;;;;10.09;100.00;94976.50;10531054;28;4857;-70
2023/11/01 09:15:04;;;;;;;;;;;;;;;10.26;100.00;94969.56;10510711;28;1913;-69
2023/11/01 09:20:08;;;;;;;;;;;;;;;10.37;100.00;94964.84;10533094;28;1575;-69
2023/11/01 09:25:15;;;;;;;;;;;;;;;10.61;100.00;94975.50;10542331;28;1833;-69
2023/11/01 09:30:18;;;;;;;;;;;;;;;10.76;100.00;94967.19;10534945;28;1878;-69
2023/11/01 09:35:22;;;;;;;;;;;;;;;10.82;100.00;94957.16;10547767;27;1894;-70
2023/11/01 09:40:27;;;;;;;;;;;;;;;11.10;100.00;94952.63;10527229;28;2486;-73
2023/11/01 09:45:30;;;;;;;;;;;;;;;11.45;100.00;94953.06;10536679;28;1433;-70
2023/11/01 09:50:35;;;;;;;;;;;;;;;11.68;100.00;94952.06;10504013;28;1447;-70
2023/11/01 09:55:40;;;;;;;;;;;;;;;11.79;100.00;94950.75;10510008;28;1918;-73
2023/11/01 10:00:48;;;;;;;;;;;;;;;11.90;100.00;94949.50;10525483;28;1529;-71
2023/11/01 10:05:50;;;;;;;;;;;;;;;12.01;100.00;94951.94;10525383;28;1715;-70
2023/11/01 10:10:57;;;;;;;;;;;;;;;12.08;100.00;94941.56;10510161;28;4671;-70
2023/11/01 10:16:01;;;;;;;;;;;;;;;12.21;100.00;94927.25;10524442;28;1995;-70
2023/11/01 10:21:04;;;;;;;;;;;;;;;12.38;100.00;94913.94;10506691;28;1574;-71
2023/11/01 10:26:11;;;;;;;;;;;;;;;12.33;100.00;94911.34;10518381;28;2555;-71
2023/11/01 10:31:14;;;;;;;;;;;;;;;12.52;100.00;94903.09;10477718;28;2652;-72
2023/11/01 10:36:17;;;;;;;;;;;;;;;12.69;100.00;94880.84;10507390;28;2691;-69
2023/11/01 10:41:20;;;;;;;;;;;;;;;12.79;100.00;94874.38;10492806;28;2570;-69
2023/11/01 10:46:24;;;;;;;;;;;;;;;12.81;100.00;94859.50;10497640;28;2546;-68
2023/11/01 10:51:30;;;;;;;;;;;;;;;12.90;100.00;94854.94;10520102;28;2686;-70
2023/11/01 10:56:35;;;;;;;;;;;;;;;12.90;100.00;94843.34;10512368;28;2569;-69
2023/11/01 11:01:38;;;;;;;;;;;;;;;12.78;100.00;94825.03;10510471;28;2593;-71
2023/11/01 11:06:45;;;;;;;;;;;;;;;12.89;100.00;94826.38;10490136;28;2581;-69
2023/11/01 11:11:50;;;;;;;;;;;;;;;12.91;100.00;94820.66;10516661;28;4437;-70
2023/11/01 11:16:54;;;;;;;;;;;;;;;12.87;100.00;94817.00;10500063;28;2695;-71
2023/11/01 11:22:05;;;;;;;;;;;;;;;12.98;100.00;94813.72;10513645;28;2625;-71
2023/11/01 11:32:34;;;;;;;;;;;;;;;13.00;100.00;94826.91;10619088;27;2775;-69
2023/11/01 11:37:36;;;;;;;;;;;;;;;12.89;100.00;94815.56;10594719;27;2647;-71
2023/11/01 11:42:39;;;;;;;;;;;;;;;12.96;100.00;94805.13;10597752;27;2665;-70
2023/11/01 11:47:41;;;;;;;;;;;;;;;12.97;100.00;94798.63;10589658;27;2628;-69
2023/11/01 11:52:44;;;;;;;;;;;;;;;13.00;100.00;94794.53;10595288;27;2646;-68
2023/11/01 11:57:46;;;;;;;;;;;;;;;13.08;100.00;94796.44;10595791;27;2747;-70
2023/11/01 12:02:48;;;;;;;;;;;;;;;13.45;100.00;94784.34;10600220;27;2583;-71
2023/11/01 12:07:52;;;;;;;;;;;;;;;13.68;100.00;94776.91;10608233;27;2559;-69
2023/11/01 12:12:57;;;;;;;;;;;;;;;13.77;100.00;94775.00;10588333;27;5028;-70
2023/11/01 12:18:01;;;;;;;;;;;;;;;13.84;100.00;94769.13;10601783;27;2759;-71
2023/11/01 12:23:03;;;;;;;;;;;;;;;13.94;100.00;94755.31;10584589;27;2577;-69
2023/11/01 12:28:06;;;;;;;;;;;;;;;14.00;100.00;94759.44;10602447;27;2603;-71
2023/11/01 12:33:08;;;;;;;;;;;;;;;13.88;100.00;94747.69;10601663;27;2664;-69
2023/11/01 12:38:11;;;;;;;;;;;;;;;13.92;100.00;94744.00;10580026;27;2610;-71
2023/11/01 12:43:16;;;;;;;;;;;;;;;13.81;100.00;94742.75;10580317;27;3012;-68
2023/11/01 12:48:19;;;;;;;;;;;;;;;13.89;100.00;94728.44;10576638;27;2596;-69
2023/11/01 12:53:21;;;;;;;;;;;;;;;13.86;100.00;94722.88;10567661;27;2595;-68
2023/11/01 12:58:23;;;;;;;;;;;;;;;13.86;100.00;94718.25;10572094;27;2576;-69
2023/11/01 13:03:26;;;;;;;;;;;;;;;13.87;100.00;94714.47;10570819;27;2816;-68
2023/11/01 13:08:29;;;;;;;;;;;;;;;13.83;100.00;94708.09;10575823;27;2619;-67
2023/11/01 13:13:32;;;;;;;;;;;;;;;13.71;100.00;94697.16;10568710;27;2638;-68
2023/11/01 13:18:34;;;;;;;;;;;;;;;13.56;100.00;94694.94;10565927;27;2658;-68
2023/11/01 13:23:37;;;;;;;;;;;;;;;13.59;100.00;94681.59;10572956;27;2615;-68
2023/11/01 13:28:39;;;;;;;;;;;;;;;13.70;100.00;94671.28;10568332;27;2580;-73
2023/11/01 13:33:42;;;;;;;;;;;;;;;13.63;100.00;94679.06;10558190;27;2690;-68
2023/11/01 13:38:44;;;;;;;;;;;;;;;13.84;100.00;94671.88;10564156;27;2635;-68
2023/11/01 13:43:47;;;;;;;;;;;;;;;13.93;100.00;94667.25;10563216;27;2552;-69
2023/11/01 13:48:49;;;;;;;;;;;;;;;13.83;100.00;94659.50;10558419;27;2734;-68
2023/11/01 13:53:51;;;;;;;;;;;;;;;13.70;100.00;94657.75;10555180;27;2559;-68
2023/11/01 13:58:54;;;;;;;;;;;;;;;13.73;100.00;94655.19;10562349;27;2677;-68
2023/11/01 14:03:58;;;;;;;;;;;;;;;13.70;100.00;94655.84;10549581;27;2528;-67
2023/11/01 14:09:03;;;;;;;;;;;;;;;13.75;100.00;94657.59;10564308;27;4704;-69
2023/11/01 14:14:06;;;;;;;;;;;;;;;13.62;100.00;94642.38;10565508;27;2654;-68
2023/11/01 14:19:10;;;;;;;;;;;;;;;13.49;100.00;94636.03;10541017;27;2631;-68
2023/11/01 14:24:12;;;;;;;;;;;;;;;13.30;100.00;94627.47;10570071;27;2583;-68
2023/11/01 14:29:21;;;;;;;;;;;;;;;13.18;100.00;94628.09;10562299;27;2535;-75
2023/11/01 14:34:26;;;;;;;;;;;;;;;13.07;100.00;94624.09;10561857;27;3075;-68
2023/11/01 14:39:29;;;;;;;;;;;;;;;12.98;100.00;94618.72;10562014;27;2649;-68
2023/11/01 14:44:32;;;;;;;;;;;;;;;12.93;100.00;94616.97;10559980;27;2661;-68
2023/11/01 14:49:34;;;;;;;;;;;;;;;12.79;100.00;94621.72;10555052;27;2618;-69
2023/11/01 14:54:36;;;;;;;;;;;;;;;12.74;100.00;94624.56;10565286;27;2635;-69
2023/11/01 14:59:39;;;;;;;;;;;;;;;12.61;100.00;94609.31;10564242;27;2673;-69
2023/11/01 15:04:42;;;;;;;;;;;;;;;12.45;100.00;94604.34;10560817;27;2671;-69
2023/11/01 15:09:44;;;;;;;;;;;;;;;12.31;100.00;94600.97;10563913;27;3036;-68
2023/11/01 15:14:46;;;;;;;;;;;;;;;12.20;100.00;94607.75;10560304;27;2661;-69
2023/11/01 15:19:49;;;;;;;;;;;;;;;12.04;100.00;94607.38;10565372;27;2924;-70
2023/11/01 15:24:51;;;;;;;;;;;;;;;11.97;100.00;94606.25;10559236;27;2651;-69
2023/11/01 15:29:54;;;;;;;;;;;;;;;11.92;100.00;94598.31;10558092;28;3032;-69
2023/11/01 15:34:57;;;;;;;;;;;;;;;11.86;100.00;94593.03;10566387;28;2635;-74
2023/11/01 15:39:59;;;;;;;;;;;;;;;11.76;100.00;94585.19;10562729;28;2602;-68
2023/11/01 15:45:06;;;;;;;;;;;;;;;11.67;100.00;94591.66;10565279;28;2632;-69
2023/11/01 15:50:08;;;;;;;;;;;;;;;11.50;100.00;94576.19;10564915;28;2570;-68
2023/11/01 15:55:11;;;;;;;;;;;;;;;11.35;100.00;94574.69;10562455;27;2574;-68
2023/11/01 16:00:13;;;;;;;;;;;;;;;11.20;100.00;94578.56;10564622;28;2650;-69
2023/11/01 16:05:16;;;;;;;;;;;;;;;11.11;100.00;94566.94;10561301;28;2656;-70
2023/11/01 16:10:18;;;;;;;;;;;;;;;11.20;100.00;94573.19;10562371;28;4709;-69
2023/11/01 16:15:21;;;;;;;;;;;;;;;11.07;100.00;94580.22;10569790;27;2603;-69
2023/11/01 16:20:23;;;;;;;;;;;;;;;10.83;100.00;94579.69;10570936;27;2594;-71
2023/11/01 16:25:25;;;;;;;;;;;;;;;10.70;100.00;94578.66;10571003;27;2540;-73
2023/11/01 16:30:28;;;;;;;;;;;;;;;10.68;100.00;94570.06;10570791;27;2540;-72
2023/11/01 16:35:31;;;;;;;;;;;;;;;10.61;100.00;94575.06;10569005;27;2686;-68
2023/11/01 16:40:34;;;;;;;;;;;;;;;10.65;100.00;94569.91;10576201;27;2749;-70
2023/11/01 16:45:37;;;;;;;;;;;;;;;10.65;100.00;94570.69;10570759;27;2653;-68
2023/11/01 16:50:39;;;;;;;;;;;;;;;10.57;100.00;94590.22;10571422;27;2562;-69
2023/11/01 16:55:42;;;;;;;;;;;;;;;10.62;100.00;94583.91;10570722;27;2670;-69
2023/11/01 17:00:44;;;;;;;;;;;;;;;10.60;100.00;94589.59;10563831;27;2595;-69
2023/11/01 17:05:47;;;;;;;;;;;;;;;10.49;100.00;94594.41;10565362;27;2539;-69
2023/11/01 17:10:50;;;;;;;;;;;;;;;10.43;100.00;94592.13;10563335;27;4735;-72
2023/11/01 17:15:53;;;;;;;;;;;;;;;10.39;100.00;94604.59;10565373;27;2613;-69
2023/11/01 17:20:58;;;;;;;;;;;;;;;10.26;100.00;94623.09;10560759;27;2622;-68
2023/11/01 17:26:01;;;;;;;;;;;;;;;10.20;100.00;94613.50;10558144;27;2758;-68
2023/11/01 17:31:03;;;;;;;;;;;;;;;10.20;100.00;94626.94;10564828;27;2547;-68
2023/11/01 17:36:06;;;;;;;;;;;;;;;10.15;100.00;94631.59;10563437;28;1520;-67
2023/11/01 17:41:09;;;;;;;;;;;;;;;10.13;100.00;94631.91;10565037;28;2248;-68
2023/11/01 17:46:15;;;;;;;;;;;;;;;10.08;100.00;94632.00;10564898;28;1506;-68
2023/11/01 17:51:18;;;;;;;;;;;;;;;10.11;100.00;94620.66;10567475;28;2014;-68
2023/11/01 17:56:20;;;;;;;;;;;;;;;10.01;100.00;94624.34;10562737;28;2547;-70
2023/11/01 18:01:23;;;;;;;;;;;;;;;10.05;100.00;94629.91;10562530;28;1446;-67
2023/11/01 18:06:26;;;;;;;;;;;;;;;10.03;100.00;94626.72;10562055;28;1444;-69
2023/11/01 18:11:29;;;;;;;;;;;;;;;9.99;100.00;94623.06;10559865;28;4686;-70
2023/11/01 18:16:36;;;;;;;;;;;;;;;9.96;100.00;94624.44;10561661;28;1566;-70
2023/11/01 18:21:39;;;;;;;;;;;;;;;9.90;100.00;94619.47;10565789;28;1612;-70
2023/11/01 18:26:42;;;;;;;;;;;;;;;9.84;100.00;94601.84;10562742;28;1714;-70
2023/11/01 18:31:44;;;;;;;;;;;;;;;9.82;100.00;94602.16;10567733;27;1921;-72
2023/11/01 18:36:47;;;;;;;;;;;;;;;9.83;100.00;94597.59;10568919;27;1447;-72
2023/11/01 18:41:50;;;;;;;;;;;;;;;9.77;100.00;94586.16;10564345;28;2649;-76
2023/11/01 18:46:53;;;;;;;;;;;;;;;9.82;100.00;94594.13;10558808;27;1711;-72
2023/11/01 18:51:56;;;;;;;;;;;;;;;9.83;100.00;94608.31;10554795;28;1906;-71
2023/11/01 18:56:58;;;;;;;;;;;;;;;9.81;100.00;94607.84;10558632;28;1579;-69
2023/11/01 19:02:01;;;;;;;;;;;;;;;9.87;100.00;94620.06;10563407;28;1662;-70
2023/11/01 19:07:03;;;;;;;;;;;;;;;9.92;100.00;94625.31;10565265;28;1423;-70
2023/11/01 19:12:06;;;;;;;;;;;;;;;9.94;100.00;94626.63;10561505;28;4733;-70
2023/11/01 19:17:08;;;;;;;;;;;;;;;9.99;100.00;94625.75;10564644;28;1475;-70
2023/11/01 19:22:11;;;;;;;;;;;;;;;9.96;100.00;94634.38;10562208;27;1463;-71
2023/11/01 19:27:13;;;;;;;;;;;;;;;9.84;100.00;94596.50;10559080;28;2535;-71
2023/11/01 19:32:25;;;;;;;;;;;;;;;9.88;100.00;94563.41;10550027;28;2544;-71
2023/11/01 19:37:27;;;;;;;;;;;;;;;9.93;100.00;94567.88;10560912;28;2664;-71
2023/11/01 19:42:30;;;;;;;;;;;;;;;9.90;100.00;94557.72;10562798;28;2544;-70
2023/11/01 19:47:33;;;;;;;;;;;;;;;9.91;100.00;94576.22;10555054;28;2547;-71
2023/11/01 19:52:36;;;;;;;;;;;;;;;9.94;100.00;94604.38;10569234;27;2623;-69
2023/11/01 19:57:39;;;;;;;;;;;;;;;9.89;100.00;94599.09;10571504;27;2663;-71
2023/11/01 20:02:42;;;;;;;;;;;;;;;9.88;100.00;94586.75;10561510;27;2713;-71
2023/11/01 20:07:44;;;;;;;;;;;;;;;9.85;100.00;94588.13;10570543;27;2601;-69
2023/11/01 20:12:47;;;;;;;;;;;;;;;9.83;100.00;94576.13;10577321;27;4737;-71
2023/11/01 20:17:49;;;;;;;;;;;;;;;9.77;100.00;94553.94;10565903;27;2624;-72
2023/11/01 20:22:52;;;;;;;;;;;;;;;9.61;100.00;94566.06;10577433;27;2551;-71
2023/11/01 20:27:54;;;;;;;;;;;;;;;9.48;100.00;94567.66;10569324;27;2623;-70
2023/11/01 20:32:56;;;;;;;;;;;;;;;9.36;100.00;94553.91;10569466;27;2611;-69
2023/11/01 20:37:59;;;;;;;;;;;;;;;9.44;100.00;94550.53;10570260;27;2602;-70
2023/11/01 20:43:02;;;;;;;;;;;;;;;9.44;100.00;94555.91;10568587;27;2569;-69
2023/11/01 20:48:04;;;;;;;;;;;;;;;9.50;100.00;94557.41;10560017;27;2611;-70
2023/11/01 20:53:07;;;;;;;;;;;;;;;9.56;100.00;94550.84;10564584;27;2742;-71
2023/11/01 20:58:10;;;;;;;;;;;;;;;9.47;100.00;94547.25;10545755;27;2602;-71
2023/11/01 21:03:12;;;;;;;;;;;;;;;9.39;100.00;94547.94;10569070;27;2589;-72
2023/11/01 21:08:15;;;;;;;;;;;;;;;9.35;100.00;94546.94;10572574;27;2831;-70
2023/11/01 21:13:17;;;;;;;;;;;;;;;9.32;100.00;94566.31;10569257;27;2652;-70
2023/11/01 21:18:19;;;;;;;;;;;;;;;9.29;100.00;94580.28;10558002;27;2607;-71
2023/11/01 21:23:22;;;;;;;;;;;;;;;9.18;100.00;94574.31;10560300;27;2617;-70
2023/11/01 21:28:25;;;;;;;;;;;;;;;9.08;100.00;94569.91;10563548;27;2721;-72
2023/11/01 21:33:27;;;;;;;;;;;;;;;9.00;100.00;94575.94;10565503;27;2354;-72
2023/11/01 21:38:30;;;;;;;;;;;;;;;9.00;100.00;94581.31;10566938;28;1994;-73
2023/11/01 21:43:32;;;;;;;;;;;;;;;8.85;100.00;94570.84;10560987;27;2541;-71
2023/11/01 21:48:42;;;;;;;;;;;;;;;8.73;100.00;94568.59;10569627;28;1598;-70
2023/11/01 21:53:44;;;;;;;;;;;;;;;8.53;100.00;94552.84;10569148;28;1926;-71
2023/11/01 21:58:47;;;;;;;;;;;;;;;8.36;100.00;94550.66;10563019;28;1487;-71
2023/11/01 22:03:50;;;;;;;;;;;;;;;8.32;100.00;94557.63;10563046;28;1917;-70
2023/11/01 22:08:53;;;;;;;;;;;;;;;8.18;100.00;94554.06;10566430;28;1481;-69
2023/11/01 22:13:55;;;;;;;;;;;;;;;8.10;100.00;94566.22;10567047;28;1950;-69
2023/11/01 22:18:58;;;;;;;;;;;;;;;8.01;100.00;94558.00;10565944;28;1854;-69
2023/11/01 22:24:01;;;;;;;;;;;;;;;7.91;100.00;94542.09;10570059;28;1528;-73
2023/11/01 22:29:03;;;;;;;;;;;;;;;7.82;100.00;94533.09;10570419;28;1533;-69
2023/11/01 22:34:06;;;;;;;;;;;;;;;7.73;100.00;94527.59;10568634;27;2542;-69
2023/11/01 22:39:09;;;;;;;;;;;;;;;7.71;100.00;94519.06;10566806;28;1520;-72
2023/11/01 22:44:12;;;;;;;;;;;;;;;7.56;100.00;94503.19;10562440;27;2000;-69
2023/11/01 22:49:14;;;;;;;;;;;;;;;7.48;100.00;94485.91;10562011;27;1993;-70
2023/11/01 22:54:17;;;;;;;;;;;;;;;7.32;100.00;94504.00;10566563;27;2137;-70
2023/11/01 22:59:19;;;;;;;;;;;;;;;7.16;100.00;94501.75;10564365;27;2000;-69
2023/11/01 23:04:22;;;;;;;;;;;;;;;7.08;100.00;94481.00;10562262;27;1997;-70
2023/11/01 23:09:25;;;;;;;;;;;;;;;7.01;100.00;94481.34;10560936;27;4619;-69
2023/11/01 23:14:27;;;;;;;;;;;;;;;6.93;100.00;94464.03;10564770;27;1917;-69
2023/11/01 23:19:30;;;;;;;;;;;;;;;6.85;100.00;94453.97;10570272;27;2397;-70
2023/11/01 23:24:32;;;;;;;;;;;;;;;6.78;100.00;94435.59;10564807;27;2107;-70
2023/11/01 23:29:35;;;;;;;;;;;;;;;6.71;100.00;94434.34;10567393;28;2194;-71
2023/11/01 23:34:38;;;;;;;;;;;;;;;6.68;100.00;94422.34;10567066;28;2107;-73
2023/11/01 23:39:41;;;;;;;;;;;;;;;6.62;100.00;94428.03;10571982;28;1946;-72
2023/11/01 23:44:43;;;;;;;;;;;;;;;6.57;100.00;94425.41;10561400;28;1948;-68
2023/11/01 23:49:45;;;;;;;;;;;;;;;6.56;100.00;94415.81;10555332;28;1887;-70
2023/11/01 23:54:49;;;;;;;;;;;;;;;6.49;100.00;94416.94;10556870;28;2036;-69
2023/11/01 23:59:52;;;;;;;;;;;;;;;6.59;100.00;94399.22;10561046;28;2052;-70
